sensor_id;sensor_type;location;lat;lon;timestamp;temperature;humidity
15656;DHT22;7928;43.614;1.456;2023-10-19T00:02:45;18.60;99.90
15656;DHT22;7928;43.614;1.456;2023-10-19T00:05:11;18.70;99.90
15656;DHT22;7928;43.614;1.456;2023-10-19T00:07:41;18.70;99.90
15656;DHT22;7928;43.614;1.456;2023-10-19T00:10:09;18.60;99.90
15656;DHT22;7928;43.614;1.456;2023-10-19T00:12:40;18.60;99.90
15656;DHT22;7928;43.614;1.456;2023-10-19T00:15:10;18.50;99.90
15656;DHT22;7928;43.614;1.456;2023-10-19T00:17:37;18.50;99.90
15656;DHT22;7928;43.614;1.456;2023-10-19T00:20:06;18.40;99.90
15656;DHT22;7928;43.614;1.456;2023-10-19T00:22:49;18.40;99.90
15656;DHT22;7928;43.614;1.456;2023-10-19T00:25:18;18.40;99.90
15656;DHT22;7928;43.614;1.456;2023-10-19T00:27:49;18.30;99.90
15656;DHT22;7928;43.614;1.456;2023-10-19T00:30:15;18.30;99.90
15656;DHT22;7928;43.614;1.456;2023-10-19T00:32:44;18.40;99.90
15656;DHT22;7928;43.614;1.456;2023-10-19T00:35:12;18.30;99.90
15656;DHT22;7928;43.614;1.456;2023-10-19T00:37:55;18.30;99.90
15656;DHT22;7928;43.614;1.456;2023-10-19T00:40:43;18.30;99.90
15656;DHT22;7928;43.614;1.456;2023-10-19T00:43:13;18.30;99.90
15656;DHT22;7928;43.614;1.456;2023-10-19T00:45:43;18.30;99.90
15656;DHT22;7928;43.614;1.456;2023-10-19T00:48:13;18.30;99.90
15656;DHT22;7928;43.614;1.456;2023-10-19T00:50:43;18.40;99.90
15656;DHT22;7928;43.614;1.456;2023-10-19T00:53:15;18.40;99.90
15656;DHT22;7928;43.614;1.456;2023-10-19T00:55:42;18.40;99.90
15656;DHT22;7928;43.614;1.456;2023-10-19T00:58:11;18.40;99.90
15656;DHT22;7928;43.614;1.456;2023-10-19T01:00:43;18.40;99.90
15656;DHT22;7928;43.614;1.456;2023-10-19T01:03:11;18.30;99.90
15656;DHT22;7928;43.614;1.456;2023-10-19T01:05:43;18.30;99.90
15656;DHT22;7928;43.614;1.456;2023-10-19T01:08:15;18.30;99.90
15656;DHT22;7928;43.614;1.456;2023-10-19T01:10:51;18.20;99.90
15656;DHT22;7928;43.614;1.456;2023-10-19T01:13:19;18.20;99.90
15656;DHT22;7928;43.614;1.456;2023-10-19T01:15:53;18.20;99.90
15656;DHT22;7928;43.614;1.456;2023-10-19T01:18:21;18.30;99.90
15656;DHT22;7928;43.614;1.456;2023-10-19T01:20:54;18.30;99.90
15656;DHT22;7928;43.614;1.456;2023-10-19T01:23:23;18.30;99.90
15656;DHT22;7928;43.614;1.456;2023-10-19T01:25:55;18.40;99.90
15656;DHT22;7928;43.614;1.456;2023-10-19T01:28:29;18.30;99.90
15656;DHT22;7928;43.614;1.456;2023-10-19T01:31:08;18.40;99.90
15656;DHT22;7928;43.614;1.456;2023-10-19T01:33:40;18.40;99.90
15656;DHT22;7928;43.614;1.456;2023-10-19T01:36:09;18.50;99.90
15656;DHT22;7928;43.614;1.456;2023-10-19T01:38:51;18.50;99.90
15656;DHT22;7928;43.614;1.456;2023-10-19T01:41:20;18.60;99.90
15656;DHT22;7928;43.614;1.456;2023-10-19T01:43:48;18.60;99.90
15656;DHT22;7928;43.614;1.456;2023-10-19T01:46:16;18.60;99.90
15656;DHT22;7928;43.614;1.456;2023-10-19T01:48:50;18.60;99.90
15656;DHT22;7928;43.614;1.456;2023-10-19T01:51:21;18.60;99.90
15656;DHT22;7928;43.614;1.456;2023-10-19T01:53:51;18.70;99.90
15656;DHT22;7928;43.614;1.456;2023-10-19T01:56:17;18.70;99.90
15656;DHT22;7928;43.614;1.456;2023-10-19T01:58:47;18.70;99.90
15656;DHT22;7928;43.614;1.456;2023-10-19T02:01:15;18.70;99.90
15656;DHT22;7928;43.614;1.456;2023-10-19T02:03:47;18.80;99.90
15656;DHT22;7928;43.614;1.456;2023-10-19T02:06:14;18.80;99.90
15656;DHT22;7928;43.614;1.456;2023-10-19T02:08:45;18.80;99.90
15656;DHT22;7928;43.614;1.456;2023-10-19T02:11:15;18.80;99.90
15656;DHT22;7928;43.614;1.456;2023-10-19T02:13:44;18.80;99.90
15656;DHT22;7928;43.614;1.456;2023-10-19T02:16:13;18.80;99.90
15656;DHT22;7928;43.614;1.456;2023-10-19T02:18:42;18.80;99.90
15656;DHT22;7928;43.614;1.456;2023-10-19T02:21:10;18.80;99.90
15656;DHT22;7928;43.614;1.456;2023-10-19T02:23:38;18.80;99.90
15656;DHT22;7928;43.614;1.456;2023-10-19T02:26:07;18.80;99.90
15656;DHT22;7928;43.614;1.456;2023-10-19T02:28:35;18.80;99.90
15656;DHT22;7928;43.614;1.456;2023-10-19T02:31:04;18.80;99.90
15656;DHT22;7928;43.614;1.456;2023-10-19T02:33:40;18.80;99.90
15656;DHT22;7928;43.614;1.456;2023-10-19T02:36:07;18.80;99.90
15656;DHT22;7928;43.614;1.456;2023-10-19T02:38:39;18.80;99.90
15656;DHT22;7928;43.614;1.456;2023-10-19T02:41:07;18.90;99.90
15656;DHT22;7928;43.614;1.456;2023-10-19T02:43:37;18.80;99.90
15656;DHT22;7928;43.614;1.456;2023-10-19T02:46:03;18.80;99.90
15656;DHT22;7928;43.614;1.456;2023-10-19T02:48:31;18.80;99.90
15656;DHT22;7928;43.614;1.456;2023-10-19T02:50:57;18.80;99.90
15656;DHT22;7928;43.614;1.456;2023-10-19T02:53:32;18.80;99.90
15656;DHT22;7928;43.614;1.456;2023-10-19T02:55:59;18.80;99.90
15656;DHT22;7928;43.614;1.456;2023-10-19T02:58:37;18.80;99.90
15656;DHT22;7928;43.614;1.456;2023-10-19T03:01:12;18.80;99.90
15656;DHT22;7928;43.614;1.456;2023-10-19T03:03:39;18.80;99.90
15656;DHT22;7928;43.614;1.456;2023-10-19T03:06:09;18.80;99.90
15656;DHT22;7928;43.614;1.456;2023-10-19T03:08:36;18.80;99.90
15656;DHT22;7928;43.614;1.456;2023-10-19T03:11:02;18.90;99.90
15656;DHT22;7928;43.614;1.456;2023-10-19T03:13:36;18.90;99.90
15656;DHT22;7928;43.614;1.456;2023-10-19T03:16:02;18.90;99.90
15656;DHT22;7928;43.614;1.456;2023-10-19T03:18:33;18.90;99.90
15656;DHT22;7928;43.614;1.456;2023-10-19T03:21:00;18.90;99.90
15656;DHT22;7928;43.614;1.456;2023-10-19T03:23:27;18.90;99.90
15656;DHT22;7928;43.614;1.456;2023-10-19T03:25:55;18.90;99.90
15656;DHT22;7928;43.614;1.456;2023-10-19T03:28:37;19.00;99.90
15656;DHT22;7928;43.614;1.456;2023-10-19T03:31:06;19.00;99.90
15656;DHT22;7928;43.614;1.456;2023-10-19T03:33:34;19.00;99.90
15656;DHT22;7928;43.614;1.456;2023-10-19T03:36:02;19.00;99.90
15656;DHT22;7928;43.614;1.456;2023-10-19T03:38:30;19.00;99.90
15656;DHT22;7928;43.614;1.456;2023-10-19T03:41:02;19.00;99.90
15656;DHT22;7928;43.614;1.456;2023-10-19T03:43:33;19.00;99.90
15656;DHT22;7928;43.614;1.456;2023-10-19T03:46:03;19.10;99.90
15656;DHT22;7928;43.614;1.456;2023-10-19T03:48:35;19.10;99.90
15656;DHT22;7928;43.614;1.456;2023-10-19T03:51:04;19.10;99.90
15656;DHT22;7928;43.614;1.456;2023-10-19T03:53:31;19.10;99.90
15656;DHT22;7928;43.614;1.456;2023-10-19T03:56:04;19.10;99.90
15656;DHT22;7928;43.614;1.456;2023-10-19T03:58:36;19.10;99.90
15656;DHT22;7928;43.614;1.456;2023-10-19T04:01:06;19.10;99.90
15656;DHT22;7928;43.614;1.456;2023-10-19T04:03:33;19.10;99.90
15656;DHT22;7928;43.614;1.456;2023-10-19T04:06:02;19.10;99.90
15656;DHT22;7928;43.614;1.456;2023-10-19T04:08:31;19.10;99.90
15656;DHT22;7928;43.614;1.456;2023-10-19T04:11:03;19.10;99.90
15656;DHT22;7928;43.614;1.456;2023-10-19T04:13:37;19.10;99.90
15656;DHT22;7928;43.614;1.456;2023-10-19T04:16:06;19.10;99.90
15656;DHT22;7928;43.614;1.456;2023-10-19T04:18:35;19.10;99.90
15656;DHT22;7928;43.614;1.456;2023-10-19T04:21:08;19.10;99.90
15656;DHT22;7928;43.614;1.456;2023-10-19T04:23:35;19.10;99.90
15656;DHT22;7928;43.614;1.456;2023-10-19T04:26:03;19.10;99.90
15656;DHT22;7928;43.614;1.456;2023-10-19T04:28:37;19.00;99.90
15656;DHT22;7928;43.614;1.456;2023-10-19T04:31:12;19.00;99.90
15656;DHT22;7928;43.614;1.456;2023-10-19T04:33:42;19.00;99.90
15656;DHT22;7928;43.614;1.456;2023-10-19T04:36:12;19.00;99.90
15656;DHT22;7928;43.614;1.456;2023-10-19T04:38:39;19.00;99.90
15656;DHT22;7928;43.614;1.456;2023-10-19T04:41:07;19.00;99.90
15656;DHT22;7928;43.614;1.456;2023-10-19T04:43:35;19.00;99.90
15656;DHT22;7928;43.614;1.456;2023-10-19T04:46:07;19.00;99.90
15656;DHT22;7928;43.614;1.456;2023-10-19T04:48:38;19.00;99.90
15656;DHT22;7928;43.614;1.456;2023-10-19T04:51:09;19.00;99.90
15656;DHT22;7928;43.614;1.456;2023-10-19T04:53:36;19.00;99.90
15656;DHT22;7928;43.614;1.456;2023-10-19T04:56:05;19.00;99.90
15656;DHT22;7928;43.614;1.456;2023-10-19T04:58:32;19.00;99.90
15656;DHT22;7928;43.614;1.456;2023-10-19T05:00:59;19.00;99.90
15656;DHT22;7928;43.614;1.456;2023-10-19T05:03:27;19.00;99.90
15656;DHT22;7928;43.614;1.456;2023-10-19T05:05:56;19.10;99.90
15656;DHT22;7928;43.614;1.456;2023-10-19T05:08:23;19.10;99.90
15656;DHT22;7928;43.614;1.456;2023-10-19T05:10:53;19.10;99.90
15656;DHT22;7928;43.614;1.456;2023-10-19T05:13:21;19.10;99.90
15656;DHT22;7928;43.614;1.456;2023-10-19T05:15:48;19.00;99.90
15656;DHT22;7928;43.614;1.456;2023-10-19T05:18:15;19.10;99.90
15656;DHT22;7928;43.614;1.456;2023-10-19T05:20:42;19.10;99.90
15656;DHT22;7928;43.614;1.456;2023-10-19T05:23:10;19.00;99.90
15656;DHT22;7928;43.614;1.456;2023-10-19T05:25:38;19.00;99.90
15656;DHT22;7928;43.614;1.456;2023-10-19T05:28:06;19.00;99.90
15656;DHT22;7928;43.614;1.456;2023-10-19T05:30:35;19.00;99.90
15656;DHT22;7928;43.614;1.456;2023-10-19T05:33:03;19.00;99.90
15656;DHT22;7928;43.614;1.456;2023-10-19T05:35:31;18.90;99.90
15656;DHT22;7928;43.614;1.456;2023-10-19T05:38:00;18.90;99.90
15656;DHT22;7928;43.614;1.456;2023-10-19T05:40:30;18.80;99.90
15656;DHT22;7928;43.614;1.456;2023-10-19T05:42:57;18.90;99.90
15656;DHT22;7928;43.614;1.456;2023-10-19T05:45:26;18.80;99.90
15656;DHT22;7928;43.614;1.456;2023-10-19T05:47:54;18.80;99.90
15656;DHT22;7928;43.614;1.456;2023-10-19T05:50:21;18.80;99.90
15656;DHT22;7928;43.614;1.456;2023-10-19T05:52:48;18.80;99.90
15656;DHT22;7928;43.614;1.456;2023-10-19T05:55:17;18.70;99.90
15656;DHT22;7928;43.614;1.456;2023-10-19T05:57:48;18.80;99.90
15656;DHT22;7928;43.614;1.456;2023-10-19T06:00:15;18.70;99.90
15656;DHT22;7928;43.614;1.456;2023-10-19T06:02:47;18.70;99.90
15656;DHT22;7928;43.614;1.456;2023-10-19T06:05:15;18.70;99.90
15656;DHT22;7928;43.614;1.456;2023-10-19T06:07:43;18.70;99.90
15656;DHT22;7928;43.614;1.456;2023-10-19T06:10:11;18.70;99.90
15656;DHT22;7928;43.614;1.456;2023-10-19T06:12:42;18.70;99.90
15656;DHT22;7928;43.614;1.456;2023-10-19T06:15:10;18.60;99.90
15656;DHT22;7928;43.614;1.456;2023-10-19T06:17:38;18.60;99.90
15656;DHT22;7928;43.614;1.456;2023-10-19T06:20:07;18.60;99.90
15656;DHT22;7928;43.614;1.456;2023-10-19T06:22:46;18.60;99.90
15656;DHT22;7928;43.614;1.456;2023-10-19T06:25:16;18.50;99.90
15656;DHT22;7928;43.614;1.456;2023-10-19T06:27:45;18.50;99.90
15656;DHT22;7928;43.614;1.456;2023-10-19T06:30:13;18.50;99.90
15656;DHT22;7928;43.614;1.456;2023-10-19T06:32:46;18.50;99.90
15656;DHT22;7928;43.614;1.456;2023-10-19T06:35:14;18.50;99.90
15656;DHT22;7928;43.614;1.456;2023-10-19T06:37:41;18.50;99.90
15656;DHT22;7928;43.614;1.456;2023-10-19T06:40:10;18.50;99.90
15656;DHT22;7928;43.614;1.456;2023-10-19T06:42:38;18.50;99.90
15656;DHT22;7928;43.614;1.456;2023-10-19T06:45:06;18.60;99.90
15656;DHT22;7928;43.614;1.456;2023-10-19T06:47:36;18.60;99.90
15656;DHT22;7928;43.614;1.456;2023-10-19T06:50:05;18.60;99.90
15656;DHT22;7928;43.614;1.456;2023-10-19T06:52:36;18.60;99.90
15656;DHT22;7928;43.614;1.456;2023-10-19T06:55:03;18.70;99.90
15656;DHT22;7928;43.614;1.456;2023-10-19T06:57:31;18.70;99.90
15656;DHT22;7928;43.614;1.456;2023-10-19T06:59:58;18.70;99.90
15656;DHT22;7928;43.614;1.456;2023-10-19T07:02:33;18.80;99.90
15656;DHT22;7928;43.614;1.456;2023-10-19T07:05:00;18.80;99.90
15656;DHT22;7928;43.614;1.456;2023-10-19T07:07:28;18.80;99.90
15656;DHT22;7928;43.614;1.456;2023-10-19T07:09:55;18.90;99.90
15656;DHT22;7928;43.614;1.456;2023-10-19T07:12:23;18.90;99.90
15656;DHT22;7928;43.614;1.456;2023-10-19T07:14:50;19.00;99.90
15656;DHT22;7928;43.614;1.456;2023-10-19T07:17:17;19.00;99.90
15656;DHT22;7928;43.614;1.456;2023-10-19T07:19:43;19.10;99.90
15656;DHT22;7928;43.614;1.456;2023-10-19T07:22:15;19.10;99.90
15656;DHT22;7928;43.614;1.456;2023-10-19T07:24:42;19.10;99.90
15656;DHT22;7928;43.614;1.456;2023-10-19T07:27:10;19.20;99.90
15656;DHT22;7928;43.614;1.456;2023-10-19T07:29:44;19.20;99.90
15656;DHT22;7928;43.614;1.456;2023-10-19T07:32:11;19.30;99.90
15656;DHT22;7928;43.614;1.456;2023-10-19T07:34:39;19.30;99.90
15656;DHT22;7928;43.614;1.456;2023-10-19T07:37:06;19.40;99.90
15656;DHT22;7928;43.614;1.456;2023-10-19T07:39:35;19.40;99.90
15656;DHT22;7928;43.614;1.456;2023-10-19T07:42:05;19.40;99.90
15656;DHT22;7928;43.614;1.456;2023-10-19T07:44:32;19.50;99.90
15656;DHT22;7928;43.614;1.456;2023-10-19T07:46:59;19.50;99.90
15656;DHT22;7928;43.614;1.456;2023-10-19T07:49:26;19.60;99.90
15656;DHT22;7928;43.614;1.456;2023-10-19T07:51:53;19.70;99.90
15656;DHT22;7928;43.614;1.456;2023-10-19T07:54:20;19.70;99.90
15656;DHT22;7928;43.614;1.456;2023-10-19T07:56:49;19.70;99.90
15656;DHT22;7928;43.614;1.456;2023-10-19T07:59:16;19.70;99.90
15656;DHT22;7928;43.614;1.456;2023-10-19T08:01:44;19.70;99.90
15656;DHT22;7928;43.614;1.456;2023-10-19T08:04:11;19.70;99.90
15656;DHT22;7928;43.614;1.456;2023-10-19T08:06:38;19.70;99.90
15656;DHT22;7928;43.614;1.456;2023-10-19T08:09:05;19.80;99.90
15656;DHT22;7928;43.614;1.456;2023-10-19T08:11:32;20.00;99.90
15656;DHT22;7928;43.614;1.456;2023-10-19T08:14:01;20.10;99.90
15656;DHT22;7928;43.614;1.456;2023-10-19T08:16:28;20.20;99.90
15656;DHT22;7928;43.614;1.456;2023-10-19T08:18:56;20.20;99.90
15656;DHT22;7928;43.614;1.456;2023-10-19T08:21:23;20.20;99.90
15656;DHT22;7928;43.614;1.456;2023-10-19T08:23:52;20.10;99.90
15656;DHT22;7928;43.614;1.456;2023-10-19T08:26:19;20.10;99.90
15656;DHT22;7928;43.614;1.456;2023-10-19T08:28:47;20.10;99.90
15656;DHT22;7928;43.614;1.456;2023-10-19T08:31:16;20.10;99.90
15656;DHT22;7928;43.614;1.456;2023-10-19T08:33:44;20.10;99.90
15656;DHT22;7928;43.614;1.456;2023-10-19T08:36:18;20.10;99.90
15656;DHT22;7928;43.614;1.456;2023-10-19T08:38:46;20.10;99.90
15656;DHT22;7928;43.614;1.456;2023-10-19T08:41:13;20.10;99.90
15656;DHT22;7928;43.614;1.456;2023-10-19T08:43:41;20.10;99.90
15656;DHT22;7928;43.614;1.456;2023-10-19T08:46:08;20.10;99.90
15656;DHT22;7928;43.614;1.456;2023-10-19T08:48:39;20.10;99.90
15656;DHT22;7928;43.614;1.456;2023-10-19T08:51:09;20.00;99.90
15656;DHT22;7928;43.614;1.456;2023-10-19T08:53:37;20.00;99.90
15656;DHT22;7928;43.614;1.456;2023-10-19T08:56:06;20.10;99.90
15656;DHT22;7928;43.614;1.456;2023-10-19T08:58:34;20.10;99.90
15656;DHT22;7928;43.614;1.456;2023-10-19T09:01:02;20.10;99.90
15656;DHT22;7928;43.614;1.456;2023-10-19T09:03:35;20.10;99.90
15656;DHT22;7928;43.614;1.456;2023-10-19T09:06:06;20.10;99.90
15656;DHT22;7928;43.614;1.456;2023-10-19T09:08:33;20.20;99.90
15656;DHT22;7928;43.614;1.456;2023-10-19T09:11:12;20.20;99.90
15656;DHT22;7928;43.614;1.456;2023-10-19T09:13:47;20.30;99.90
15656;DHT22;7928;43.614;1.456;2023-10-19T09:16:16;20.30;99.90
15656;DHT22;7928;43.614;1.456;2023-10-19T09:18:43;20.20;99.90
15656;DHT22;7928;43.614;1.456;2023-10-19T09:21:15;20.30;99.90
15656;DHT22;7928;43.614;1.456;2023-10-19T09:23:50;20.30;99.90
15656;DHT22;7928;43.614;1.456;2023-10-19T09:26:17;20.30;99.90
15656;DHT22;7928;43.614;1.456;2023-10-19T09:28:47;20.30;99.90
15656;DHT22;7928;43.614;1.456;2023-10-19T09:31:14;20.20;99.90
15656;DHT22;7928;43.614;1.456;2023-10-19T09:33:43;20.20;99.90
15656;DHT22;7928;43.614;1.456;2023-10-19T09:36:13;20.10;99.90
15656;DHT22;7928;43.614;1.456;2023-10-19T09:38:45;20.10;99.90
15656;DHT22;7928;43.614;1.456;2023-10-19T09:41:15;20.10;99.90
15656;DHT22;7928;43.614;1.456;2023-10-19T09:43:44;20.10;99.90
15656;DHT22;7928;43.614;1.456;2023-10-19T09:46:21;20.10;99.90
15656;DHT22;7928;43.614;1.456;2023-10-19T09:48:49;20.10;99.90
15656;DHT22;7928;43.614;1.456;2023-10-19T09:51:20;20.00;99.90
15656;DHT22;7928;43.614;1.456;2023-10-19T09:53:51;20.00;99.90
15656;DHT22;7928;43.614;1.456;2023-10-19T09:56:24;20.00;99.90
15656;DHT22;7928;43.614;1.456;2023-10-19T09:58:54;20.00;99.90
15656;DHT22;7928;43.614;1.456;2023-10-19T10:01:22;20.10;99.90
15656;DHT22;7928;43.614;1.456;2023-10-19T10:03:50;20.20;99.90
15656;DHT22;7928;43.614;1.456;2023-10-19T10:06:28;20.30;99.90
15656;DHT22;7928;43.614;1.456;2023-10-19T10:08:56;20.40;99.90
15656;DHT22;7928;43.614;1.456;2023-10-19T10:11:24;20.60;99.90
15656;DHT22;7928;43.614;1.456;2023-10-19T10:13:52;20.60;99.90
15656;DHT22;7928;43.614;1.456;2023-10-19T10:16:23;20.70;99.90
15656;DHT22;7928;43.614;1.456;2023-10-19T10:18:54;20.90;99.90
15656;DHT22;7928;43.614;1.456;2023-10-19T10:21:26;20.80;99.90
15656;DHT22;7928;43.614;1.456;2023-10-19T10:23:56;20.90;99.90
15656;DHT22;7928;43.614;1.456;2023-10-19T10:26:25;20.80;99.90
15656;DHT22;7928;43.614;1.456;2023-10-19T10:29:10;20.90;99.90
15656;DHT22;7928;43.614;1.456;2023-10-19T10:31:41;21.00;99.90
15656;DHT22;7928;43.614;1.456;2023-10-19T10:34:09;21.10;99.90
15656;DHT22;7928;43.614;1.456;2023-10-19T10:36:58;21.50;99.90
15656;DHT22;7928;43.614;1.456;2023-10-19T10:39:26;21.80;99.90
15656;DHT22;7928;43.614;1.456;2023-10-19T10:41:56;22.10;99.90
15656;DHT22;7928;43.614;1.456;2023-10-19T10:44:36;22.10;99.90
15656;DHT22;7928;43.614;1.456;2023-10-19T10:47:03;22.00;99.90
15656;DHT22;7928;43.614;1.456;2023-10-19T10:49:32;22.10;99.90
15656;DHT22;7928;43.614;1.456;2023-10-19T10:52:01;22.10;99.90
15656;DHT22;7928;43.614;1.456;2023-10-19T10:54:28;22.40;99.90
15656;DHT22;7928;43.614;1.456;2023-10-19T10:56:55;22.50;99.90
15656;DHT22;7928;43.614;1.456;2023-10-19T10:59:22;22.50;99.90
15656;DHT22;7928;43.614;1.456;2023-10-19T11:01:49;22.50;99.90
15656;DHT22;7928;43.614;1.456;2023-10-19T11:04:16;22.30;99.90
15656;DHT22;7928;43.614;1.456;2023-10-19T11:06:49;22.60;99.90
15656;DHT22;7928;43.614;1.456;2023-10-19T11:09:17;22.70;99.90
15656;DHT22;7928;43.614;1.456;2023-10-19T11:11:45;23.00;99.90
15656;DHT22;7928;43.614;1.456;2023-10-19T11:14:12;23.50;99.90
15656;DHT22;7928;43.614;1.456;2023-10-19T11:16:39;24.50;99.90
15656;DHT22;7928;43.614;1.456;2023-10-19T11:19:06;25.10;99.90
15656;DHT22;7928;43.614;1.456;2023-10-19T11:21:35;25.10;99.90
15656;DHT22;7928;43.614;1.456;2023-10-19T11:24:02;24.90;99.90
15656;DHT22;7928;43.614;1.456;2023-10-19T11:26:31;24.50;99.90
15656;DHT22;7928;43.614;1.456;2023-10-19T11:29:06;25.10;99.90
15656;DHT22;7928;43.614;1.456;2023-10-19T11:31:35;27.30;99.90
15656;DHT22;7928;43.614;1.456;2023-10-19T11:34:06;27.90;99.90
15656;DHT22;7928;43.614;1.456;2023-10-19T11:36:34;29.20;99.90
15656;DHT22;7928;43.614;1.456;2023-10-19T11:39:01;31.30;99.90
15656;DHT22;7928;43.614;1.456;2023-10-19T11:41:31;29.70;99.90
15656;DHT22;7928;43.614;1.456;2023-10-19T11:43:58;29.40;99.90
15656;DHT22;7928;43.614;1.456;2023-10-19T11:46:26;30.60;99.90
15656;DHT22;7928;43.614;1.456;2023-10-19T11:48:55;31.50;99.90
15656;DHT22;7928;43.614;1.456;2023-10-19T11:51:22;32.40;99.90
15656;DHT22;7928;43.614;1.456;2023-10-19T11:53:49;31.50;99.90
15656;DHT22;7928;43.614;1.456;2023-10-19T11:56:16;31.40;99.90
15656;DHT22;7928;43.614;1.456;2023-10-19T11:58:44;30.60;99.90
15656;DHT22;7928;43.614;1.456;2023-10-19T12:01:12;29.90;99.90
15656;DHT22;7928;43.614;1.456;2023-10-19T12:03:41;29.50;99.90
15656;DHT22;7928;43.614;1.456;2023-10-19T12:06:12;29.00;99.90
15656;DHT22;7928;43.614;1.456;2023-10-19T12:08:44;28.00;99.90
15656;DHT22;7928;43.614;1.456;2023-10-19T12:11:11;27.30;99.90
15656;DHT22;7928;43.614;1.456;2023-10-19T12:13:43;26.80;99.90
15656;DHT22;7928;43.614;1.456;2023-10-19T12:16:11;26.60;99.90
15656;DHT22;7928;43.614;1.456;2023-10-19T12:18:41;26.00;99.90
15656;DHT22;7928;43.614;1.456;2023-10-19T12:21:08;25.60;99.90
15656;DHT22;7928;43.614;1.456;2023-10-19T12:23:38;25.60;99.90
15656;DHT22;7928;43.614;1.456;2023-10-19T12:26:06;25.70;99.90
15656;DHT22;7928;43.614;1.456;2023-10-19T12:28:36;25.70;99.90
15656;DHT22;7928;43.614;1.456;2023-10-19T12:31:06;25.40;99.90
15656;DHT22;7928;43.614;1.456;2023-10-19T12:33:34;25.20;99.90
15656;DHT22;7928;43.614;1.456;2023-10-19T12:36:01;25.40;99.90
15656;DHT22;7928;43.614;1.456;2023-10-19T12:38:47;25.50;99.90
15656;DHT22;7928;43.614;1.456;2023-10-19T12:41:14;25.40;99.90
15656;DHT22;7928;43.614;1.456;2023-10-19T12:43:42;25.40;99.90
15656;DHT22;7928;43.614;1.456;2023-10-19T12:46:12;25.20;99.90
15656;DHT22;7928;43.614;1.456;2023-10-19T12:48:39;25.10;99.90
15656;DHT22;7928;43.614;1.456;2023-10-19T12:51:06;25.00;99.90
15656;DHT22;7928;43.614;1.456;2023-10-19T12:53:34;24.90;99.90
15656;DHT22;7928;43.614;1.456;2023-10-19T12:56:03;24.80;99.90
15656;DHT22;7928;43.614;1.456;2023-10-19T12:58:30;24.50;99.90
15656;DHT22;7928;43.614;1.456;2023-10-19T13:00:58;24.40;99.90
15656;DHT22;7928;43.614;1.456;2023-10-19T13:03:26;24.40;99.90
15656;DHT22;7928;43.614;1.456;2023-10-19T13:05:57;24.50;99.90
15656;DHT22;7928;43.614;1.456;2023-10-19T13:08:24;24.60;99.90
15656;DHT22;7928;43.614;1.456;2023-10-19T13:10:53;24.50;99.90
15656;DHT22;7928;43.614;1.456;2023-10-19T13:13:21;24.10;99.90
15656;DHT22;7928;43.614;1.456;2023-10-19T13:15:49;24.00;99.90
15656;DHT22;7928;43.614;1.456;2023-10-19T13:18:18;23.80;99.90
15656;DHT22;7928;43.614;1.456;2023-10-19T13:20:48;23.60;99.90
15656;DHT22;7928;43.614;1.456;2023-10-19T13:23:15;23.40;99.90
15656;DHT22;7928;43.614;1.456;2023-10-19T13:25:45;23.50;99.90
15656;DHT22;7928;43.614;1.456;2023-10-19T13:28:19;23.50;99.90
15656;DHT22;7928;43.614;1.456;2023-10-19T13:30:49;23.50;99.90
15656;DHT22;7928;43.614;1.456;2023-10-19T13:33:17;23.40;99.90
15656;DHT22;7928;43.614;1.456;2023-10-19T13:35:45;23.30;99.90
15656;DHT22;7928;43.614;1.456;2023-10-19T13:38:16;23.40;99.90
15656;DHT22;7928;43.614;1.456;2023-10-19T13:40:46;23.40;99.90
15656;DHT22;7928;43.614;1.456;2023-10-19T13:43:15;23.30;99.90
15656;DHT22;7928;43.614;1.456;2023-10-19T13:45:44;23.20;99.90
15656;DHT22;7928;43.614;1.456;2023-10-19T13:48:13;23.10;99.90
15656;DHT22;7928;43.614;1.456;2023-10-19T13:50:42;23.00;99.90
15656;DHT22;7928;43.614;1.456;2023-10-19T13:53:10;22.90;99.90
15656;DHT22;7928;43.614;1.456;2023-10-19T13:55:38;22.80;99.90
15656;DHT22;7928;43.614;1.456;2023-10-19T13:58:05;22.70;99.90
15656;DHT22;7928;43.614;1.456;2023-10-19T14:00:33;22.70;99.90
15656;DHT22;7928;43.614;1.456;2023-10-19T14:03:06;22.70;99.90
15656;DHT22;7928;43.614;1.456;2023-10-19T14:05:36;22.70;99.90
15656;DHT22;7928;43.614;1.456;2023-10-19T14:08:05;22.70;99.90
15656;DHT22;7928;43.614;1.456;2023-10-19T14:10:32;22.80;99.90
15656;DHT22;7928;43.614;1.456;2023-10-19T14:13:01;22.80;99.90
15656;DHT22;7928;43.614;1.456;2023-10-19T14:15:28;22.70;99.90
15656;DHT22;7928;43.614;1.456;2023-10-19T14:17:57;22.70;99.90
15656;DHT22;7928;43.614;1.456;2023-10-19T14:20:25;22.70;99.90
15656;DHT22;7928;43.614;1.456;2023-10-19T14:22:52;22.70;99.90
15656;DHT22;7928;43.614;1.456;2023-10-19T14:25:20;22.60;99.90
15656;DHT22;7928;43.614;1.456;2023-10-19T14:27:49;22.60;99.90
15656;DHT22;7928;43.614;1.456;2023-10-19T14:30:21;22.60;99.90
15656;DHT22;7928;43.614;1.456;2023-10-19T14:32:49;22.70;99.90
15656;DHT22;7928;43.614;1.456;2023-10-19T14:35:17;22.80;99.90
15656;DHT22;7928;43.614;1.456;2023-10-19T14:37:45;22.70;99.90
15656;DHT22;7928;43.614;1.456;2023-10-19T14:40:14;22.70;99.90
15656;DHT22;7928;43.614;1.456;2023-10-19T14:42:42;22.70;99.90
15656;DHT22;7928;43.614;1.456;2023-10-19T14:45:12;22.70;99.90
15656;DHT22;7928;43.614;1.456;2023-10-19T14:47:46;22.70;99.90
15656;DHT22;7928;43.614;1.456;2023-10-19T14:50:14;22.60;99.90
15656;DHT22;7928;43.614;1.456;2023-10-19T14:52:44;22.50;99.90
15656;DHT22;7928;43.614;1.456;2023-10-19T14:55:13;22.50;99.90
15656;DHT22;7928;43.614;1.456;2023-10-19T14:57:42;22.40;99.90
15656;DHT22;7928;43.614;1.456;2023-10-19T15:00:12;22.40;99.90
15656;DHT22;7928;43.614;1.456;2023-10-19T15:02:44;22.40;99.90
15656;DHT22;7928;43.614;1.456;2023-10-19T15:05:11;22.30;99.90
15656;DHT22;7928;43.614;1.456;2023-10-19T15:07:42;22.40;99.90
15656;DHT22;7928;43.614;1.456;2023-10-19T15:10:11;22.40;99.90
15656;DHT22;7928;43.614;1.456;2023-10-19T15:12:38;22.40;99.90
15656;DHT22;7928;43.614;1.456;2023-10-19T15:15:06;22.40;99.90
15656;DHT22;7928;43.614;1.456;2023-10-19T15:17:34;22.30;99.90
15656;DHT22;7928;43.614;1.456;2023-10-19T15:20:04;22.30;99.90
15656;DHT22;7928;43.614;1.456;2023-10-19T15:22:31;22.40;99.90
15656;DHT22;7928;43.614;1.456;2023-10-19T15:24:59;22.30;99.90
15656;DHT22;7928;43.614;1.456;2023-10-19T15:27:25;22.30;99.90
15656;DHT22;7928;43.614;1.456;2023-10-19T15:29:55;22.30;99.90
15656;DHT22;7928;43.614;1.456;2023-10-19T15:32:22;22.20;99.90
15656;DHT22;7928;43.614;1.456;2023-10-19T15:34:50;22.20;99.90
15656;DHT22;7928;43.614;1.456;2023-10-19T15:37:18;22.20;99.90
15656;DHT22;7928;43.614;1.456;2023-10-19T15:39:46;22.10;99.90
15656;DHT22;7928;43.614;1.456;2023-10-19T15:42:13;22.10;99.90
15656;DHT22;7928;43.614;1.456;2023-10-19T15:44:40;22.10;99.90
15656;DHT22;7928;43.614;1.456;2023-10-19T15:47:07;22.00;99.90
15656;DHT22;7928;43.614;1.456;2023-10-19T15:49:46;22.10;99.90
15656;DHT22;7928;43.614;1.456;2023-10-19T15:52:13;22.10;99.90
15656;DHT22;7928;43.614;1.456;2023-10-19T15:54:41;22.10;99.90
15656;DHT22;7928;43.614;1.456;2023-10-19T15:57:08;22.10;99.90
15656;DHT22;7928;43.614;1.456;2023-10-19T15:59:35;22.10;99.90